Etusivu
METAR-TAF:

METAR-TAF

Lentoasemat :

Lemmijoki, Norja

Leveyspiiri: 70-04N, Pituuspiiri: 024-59E, korkeus merenpinnasta: 0 m

Tämänhetkinen sää

Tämä raportti tehtiin 24 minuuttia sitten, kello 18.20 UTC
Tuuli 5 kn pohjoisen/luoteesta
Lämpötila 13°C
Kosteus 77%
Ilmanpaine 1025 hPa
Näkyvyys 10 km tai enemmän

METAR: ENNA 221820Z AUTO 33005KT 9999 BKN051/// 13/09 Q1025 RMK WIND 1800FT 13004KT

Aika: 20:44 (18:44 UTC)

Sääennuste

Ennuste voimassa 22. päivästä klo 18 UTC - 23. päivään klo 18 UTC
Tuuli 5 kn eri suunnista
Näkyvyys 10 km tai enemmän
Muutamia pilviä 1500 ft:n korkeudessa
Hajonneita pilviä 4000 ft:n korkeudessa
Tulossa
23. päivästä klo 12 UTC - 23. päivään klo 15 UTC
Tuuli 10 kn pohjoisesta

TAF: ENNA 2218/2318 VRB05KT 9999 FEW015 BKN040 BECMG 2312/2315 36010KT

Säähavainnot ja -ennusteet yli 4000 lentoasemalta (METAR- ja TAF-raportit).

Käytössä olevat sääasemat on merkitty karttaan keltaisilla ja punaisilla pisteillä.

Aseta hiiri pisteen päälle nähdäksesi sääaseman nimen.

Klikkaa sitten nähdäksesi säähavainnot ja -ennusteet.

Kartan vaihtaminen: klikkaa mustalla rastilla varustettuja vihreitä pisteitä, niin voit zoomata sisään; viivalla varustettua vihreää pistettä, niin voit zoomata ulos tai vihreitä nuolia, niin pääset viereisille kartoille.


METAR-TAF: